createdAt,value
2022-10-19T00:01:22.433Z,15.82
2022-10-19T00:03:52.288Z,16.06
2022-10-19T00:06:27.449Z,15.77
2022-10-19T00:09:04.560Z,15.92
2022-10-19T00:11:33.596Z,15.62
2022-10-19T00:14:01.075Z,15.86
2022-10-19T00:16:28.851Z,16.07
2022-10-19T00:19:00.350Z,15.92
2022-10-19T00:21:27.659Z,15.92
2022-10-19T00:23:54.549Z,15.82
2022-10-19T00:26:21.188Z,16.03
2022-10-19T00:28:48.969Z,15.52
2022-10-19T00:31:17.712Z,15.49
2022-10-19T00:33:46.947Z,15.73
2022-10-19T00:36:32.038Z,15.87
2022-10-19T00:38:59.162Z,15.57
2022-10-19T00:41:28.917Z,15.45
2022-10-19T00:43:57.760Z,15.49
2022-10-19T00:46:26.301Z,15.63
2022-10-19T00:48:57.396Z,15.89
2022-10-19T00:51:26.155Z,15.83
2022-10-19T00:53:52.985Z,15.68
2022-10-19T00:56:19.685Z,15.86
2022-10-19T00:58:46.745Z,16.11
2022-10-19T01:01:17.853Z,15.93
2022-10-19T01:03:45.291Z,15.66
2022-10-19T01:06:14.510Z,15.95
2022-10-19T01:08:41.170Z,16.05
2022-10-19T01:11:26.610Z,15.78
2022-10-19T01:14:04.995Z,15.99
2022-10-19T01:16:40.692Z,16.05
2022-10-19T01:19:27.538Z,15.82
2022-10-19T01:22:00.078Z,15.79
2022-10-19T01:25:25.135Z,16.09
2022-10-19T01:28:19.678Z,15.99
2022-10-19T01:31:17.805Z,16.16
2022-10-19T01:34:15.233Z,16.14
2022-10-19T01:37:00.200Z,15.78
2022-10-19T01:39:42.597Z,15.61
2022-10-19T01:42:28.088Z,15.86
2022-10-19T01:45:13.996Z,16.03
2022-10-19T01:47:51.080Z,15.63
2022-10-19T01:50:25.583Z,15.38
2022-10-19T01:52:54.399Z,15.26
2022-10-19T01:55:24.121Z,15.28
2022-10-19T01:57:59.310Z,15.26
2022-10-19T02:00:27.224Z,15.67
2022-10-19T02:02:55.254Z,15.41
2022-10-19T02:05:27.919Z,15.40
2022-10-19T02:08:24.968Z,15.86
2022-10-19T02:10:53.468Z,15.71
2022-10-19T02:13:21.450Z,15.43
2022-10-19T02:15:51.544Z,15.59
2022-10-19T02:18:24.255Z,15.68
2022-10-19T02:20:51.226Z,15.27
2022-10-19T02:23:22.114Z,15.28
2022-10-19T02:25:48.974Z,15.48
2022-10-19T02:28:15.758Z,15.46
2022-10-19T02:30:42.694Z,15.61
2022-10-19T02:33:09.606Z,15.06
2022-10-19T02:35:36.315Z,15.28
2022-10-19T02:38:05.360Z,14.89
2022-10-19T02:40:36.206Z,15.38
2022-10-19T02:43:07.596Z,15.53
2022-10-19T02:45:40.833Z,15.50
2022-10-19T02:48:13.387Z,15.45
2022-10-19T02:50:49.803Z,15.64
2022-10-19T02:53:16.651Z,14.87
2022-10-19T02:55:43.689Z,15.07
2022-10-19T02:58:10.383Z,15.20
2022-10-19T03:00:37.005Z,15.37
2022-10-19T03:03:03.751Z,15.54
2022-10-19T03:05:30.386Z,15.50
2022-10-19T03:07:56.982Z,15.29
2022-10-19T03:10:23.767Z,15.42
2022-10-19T03:12:50.416Z,15.58
2022-10-19T03:15:18.868Z,15.56
2022-10-19T03:17:45.470Z,15.34
2022-10-19T03:20:12.361Z,15.32
2022-10-19T03:22:39.113Z,15.52
2022-10-19T03:25:06.212Z,15.51
2022-10-19T03:27:33.162Z,15.53
2022-10-19T03:29:59.930Z,15.76
2022-10-19T03:32:26.819Z,15.56
2022-10-19T03:34:53.440Z,15.43
2022-10-19T03:37:20.120Z,15.41
2022-10-19T03:39:46.696Z,15.30
2022-10-19T03:42:13.340Z,15.27
2022-10-19T03:44:39.905Z,14.94
2022-10-19T03:47:06.508Z,15.16
2022-10-19T03:49:34.669Z,15.00
2022-10-19T03:52:03.585Z,15.41
2022-10-19T03:54:30.171Z,15.34
2022-10-19T03:56:56.822Z,15.38
2022-10-19T03:59:24.365Z,15.70
2022-10-19T04:01:50.867Z,15.79
2022-10-19T04:04:19.777Z,15.29
2022-10-19T04:06:49.048Z,15.24
2022-10-19T04:09:18.760Z,15.09
2022-10-19T04:11:45.862Z,15.13
2022-10-19T04:14:19.275Z,15.37
2022-10-19T04:16:53.876Z,15.21
2022-10-19T04:19:20.467Z,15.40
2022-10-19T04:21:49.196Z,15.45
2022-10-19T04:24:18.867Z,15.26
2022-10-19T04:26:50.416Z,15.54
2022-10-19T04:29:19.203Z,15.39
2022-10-19T04:31:48.251Z,15.51
2022-10-19T04:34:14.884Z,15.90
2022-10-19T04:36:41.509Z,15.29
2022-10-19T04:39:08.345Z,15.50
2022-10-19T04:41:35.637Z,15.54
2022-10-19T04:44:04.308Z,15.27
2022-10-19T04:46:30.895Z,15.76
2022-10-19T04:48:58.292Z,15.92
2022-10-19T04:51:26.695Z,15.85
2022-10-19T04:53:56.893Z,15.51
2022-10-19T04:56:27.031Z,15.72
2022-10-19T04:58:59.946Z,15.95
2022-10-19T05:01:29.124Z,15.62
2022-10-19T05:04:00.725Z,15.56
2022-10-19T05:06:28.641Z,15.56
2022-10-19T05:08:56.041Z,15.60
2022-10-19T05:11:22.632Z,16.09
2022-10-19T05:13:49.800Z,15.44
2022-10-19T05:16:19.259Z,15.64
2022-10-19T05:18:50.590Z,15.79
2022-10-19T05:21:18.771Z,15.46
2022-10-19T05:23:45.396Z,15.50
2022-10-19T05:26:17.759Z,15.60
2022-10-19T05:28:49.586Z,15.96
2022-10-19T05:31:19.112Z,15.59
2022-10-19T05:33:46.279Z,15.79
2022-10-19T05:36:27.631Z,15.84
2022-10-19T05:38:56.719Z,15.73
2022-10-19T05:41:24.944Z,15.74
2022-10-19T05:43:57.324Z,16.01
2022-10-19T05:46:25.212Z,15.95
2022-10-19T05:48:51.807Z,15.98
2022-10-19T05:51:23.618Z,16.11
2022-10-19T05:53:50.717Z,15.94
2022-10-19T05:56:20.376Z,15.87
2022-10-19T05:58:48.373Z,15.71
2022-10-19T06:01:16.566Z,15.81
2022-10-19T06:03:43.211Z,15.71
2022-10-19T06:06:10.182Z,15.88
2022-10-19T06:08:38.220Z,15.81
2022-10-19T06:11:13.863Z,16.09
2022-10-19T06:13:41.932Z,15.50
2022-10-19T06:16:10.089Z,15.30
2022-10-19T06:18:37.992Z,15.52
2022-10-19T06:21:06.827Z,15.76
2022-10-19T06:23:34.708Z,15.94
2022-10-19T06:26:07.285Z,15.54
2022-10-19T06:28:34.373Z,15.72
2022-10-19T06:31:01.098Z,15.81
2022-10-19T06:33:30.200Z,15.95
2022-10-19T06:35:56.939Z,15.77
2022-10-19T06:38:23.542Z,15.40
2022-10-19T06:40:50.216Z,15.61
2022-10-19T06:43:16.855Z,15.54
2022-10-19T06:45:43.399Z,15.48
2022-10-19T06:48:10.038Z,15.77
2022-10-19T06:50:36.648Z,15.27
2022-10-19T06:53:03.350Z,15.53
2022-10-19T06:55:29.977Z,15.21
2022-10-19T06:57:59.263Z,15.52
2022-10-19T07:00:25.988Z,15.82
2022-10-19T07:02:52.772Z,15.98
2022-10-19T07:05:19.424Z,15.79
2022-10-19T07:07:46.189Z,15.13
2022-10-19T07:10:13.080Z,15.31
2022-10-19T07:12:39.741Z,15.43
2022-10-19T07:15:06.798Z,15.84
2022-10-19T07:17:33.687Z,15.83
2022-10-19T07:20:00.399Z,15.78
2022-10-19T07:22:28.181Z,15.53
2022-10-19T07:24:55.135Z,15.71
2022-10-19T07:27:22.092Z,15.38
2022-10-19T07:29:48.686Z,15.68
2022-10-19T07:32:15.350Z,15.62
2022-10-19T07:34:42.084Z,15.41
2022-10-19T07:37:08.671Z,15.52
2022-10-19T07:39:35.288Z,15.51
2022-10-19T07:42:01.956Z,15.61
2022-10-19T07:44:28.572Z,15.62
2022-10-19T07:46:55.293Z,15.58
2022-10-19T07:49:22.450Z,15.76
2022-10-19T07:51:53.788Z,15.67
2022-10-19T07:54:21.397Z,15.87
2022-10-19T07:56:47.912Z,16.19
2022-10-19T07:59:16.279Z,15.50
2022-10-19T08:01:44.692Z,15.60
2022-10-19T08:04:49.103Z,15.66
2022-10-19T08:06:58.017Z,15.51
2022-10-19T08:12:15.185Z,15.75
2022-10-19T08:14:42.412Z,15.72
2022-10-19T08:17:11.955Z,16.08
2022-10-19T08:19:43.401Z,16.31
2022-10-19T08:22:11.052Z,16.12
2022-10-19T08:24:38.120Z,15.67
2022-10-19T08:27:04.867Z,16.10
2022-10-19T08:29:31.957Z,15.35
2022-10-19T08:31:59.221Z,15.78
2022-10-19T08:34:26.684Z,15.83
2022-10-19T08:36:53.223Z,16.39
2022-10-19T08:39:19.871Z,16.17
2022-10-19T08:41:53.211Z,16.07
2022-10-19T08:44:40.201Z,16.34
2022-10-19T08:47:38.156Z,16.50
2022-10-19T08:50:19.397Z,16.32
2022-10-19T08:52:51.688Z,16.23
2022-10-19T08:55:26.753Z,16.51
2022-10-19T08:58:02.979Z,16.67
2022-10-19T09:00:41.252Z,16.81
2022-10-19T09:03:13.803Z,16.90
2022-10-19T09:06:10.143Z,16.90
2022-10-19T09:08:39.026Z,16.41
2022-10-19T09:11:08.775Z,16.57
2022-10-19T09:14:03.693Z,16.50
2022-10-19T09:16:28.630Z,16.12
2022-10-19T09:21:46.316Z,16.08
2022-10-19T09:24:35.455Z,16.42
2022-10-19T09:27:02.674Z,16.06
2022-10-19T09:29:41.513Z,16.35
2022-10-19T09:32:24.087Z,16.97
2022-10-19T09:35:03.077Z,16.93
2022-10-19T09:37:32.757Z,16.61
2022-10-19T09:39:59.526Z,17.02
2022-10-19T09:42:34.031Z,16.03
2022-10-19T09:45:11.935Z,15.83
2022-10-19T09:47:40.749Z,15.95
2022-10-19T09:50:19.226Z,16.95
2022-10-19T09:52:50.287Z,17.20
2022-10-19T09:55:20.626Z,17.14
2022-10-19T09:57:49.746Z,17.32
2022-10-19T10:00:25.258Z,17.22
2022-10-19T10:02:55.869Z,17.27
2022-10-19T10:05:40.747Z,17.87
2022-10-19T10:08:15.532Z,16.87
2022-10-19T10:10:52.712Z,17.54
2022-10-19T10:13:23.561Z,17.77
2022-10-19T10:15:56.637Z,17.96
2022-10-19T10:18:24.990Z,17.99
2022-10-19T10:21:13.523Z,18.02
2022-10-19T10:23:41.083Z,17.84
2022-10-19T10:26:17.885Z,18.53
2022-10-19T10:28:50.212Z,18.36
2022-10-19T10:31:22.471Z,18.47
2022-10-19T10:34:10.794Z,18.04
2022-10-19T10:36:51.556Z,18.12
2022-10-19T10:39:18.360Z,18.19
2022-10-19T10:41:47.958Z,18.24
2022-10-19T10:44:20.746Z,17.99
2022-10-19T10:46:57.051Z,18.18
2022-10-19T10:49:27.383Z,18.18
2022-10-19T10:51:59.749Z,18.38
2022-10-19T10:54:27.826Z,18.26
2022-10-19T10:57:06.620Z,18.33
2022-10-19T10:59:43.060Z,18.32
2022-10-19T11:02:35.529Z,17.97
2022-10-19T11:05:29.469Z,18.66
2022-10-19T11:08:03.301Z,18.67
2022-10-19T11:11:14.155Z,18.34
2022-10-19T11:13:56.983Z,18.10
2022-10-19T11:16:38.951Z,18.66
2022-10-19T11:19:12.666Z,18.20
2022-10-19T11:21:59.573Z,18.44
2022-10-19T11:24:48.721Z,18.14
2022-10-19T11:28:00.128Z,17.86
2022-10-19T11:30:27.849Z,18.00
2022-10-19T11:33:06.051Z,18.25
2022-10-19T11:35:43.441Z,18.23
2022-10-19T11:38:29.800Z,18.63
2022-10-19T11:41:38.294Z,19.28
2022-10-19T11:44:43.563Z,20.28
2022-10-19T11:47:32.292Z,21.06
2022-10-19T11:50:20.451Z,21.96
2022-10-19T11:52:55.994Z,21.60
2022-10-19T11:55:43.052Z,22.43
2022-10-19T11:58:44.239Z,22.89
2022-10-19T12:01:19.697Z,23.15
2022-10-19T12:04:04.475Z,22.82
2022-10-19T12:07:01.712Z,21.19
2022-10-19T12:09:56.844Z,21.29
2022-10-19T12:12:35.103Z,21.33
2022-10-19T12:15:10.958Z,21.12
2022-10-19T12:17:41.152Z,20.61
2022-10-19T12:20:25.853Z,20.77
2022-10-19T12:22:52.959Z,20.47
2022-10-19T12:25:20.851Z,21.02
2022-10-19T12:27:50.028Z,20.80
2022-10-19T12:30:20.622Z,20.11
2022-10-19T12:33:12.213Z,20.20
2022-10-19T12:35:55.524Z,20.03
2022-10-19T12:38:35.402Z,20.20
2022-10-19T12:41:06.520Z,19.60
2022-10-19T12:43:41.025Z,20.04
2022-10-19T12:46:26.582Z,19.86
2022-10-19T12:49:41.230Z,20.10
2022-10-19T12:52:08.186Z,20.34
2022-10-19T12:54:38.280Z,20.75
2022-10-19T12:57:22.894Z,21.44
2022-10-19T13:00:00.605Z,23.15
2022-10-19T13:05:00.299Z,21.30
2022-10-19T13:07:27.718Z,21.37
2022-10-19T13:10:01.776Z,21.87
2022-10-19T13:12:29.817Z,21.36
2022-10-19T13:15:04.865Z,20.89
2022-10-19T13:17:34.767Z,20.96
2022-10-19T13:20:13.513Z,20.27
2022-10-19T13:23:09.045Z,19.70
2022-10-19T13:25:40.470Z,19.41
2022-10-19T13:28:07.054Z,20.02
2022-10-19T13:30:39.296Z,19.52
2022-10-19T13:33:33.215Z,20.04
2022-10-19T13:35:59.848Z,19.75
2022-10-19T13:38:33.739Z,19.14
2022-10-19T13:41:25.241Z,19.67
2022-10-19T13:44:02.897Z,19.65
2022-10-19T13:46:29.576Z,19.47
2022-10-19T13:49:04.975Z,19.30
2022-10-19T13:52:08.460Z,19.52
2022-10-19T13:54:53.491Z,18.50
2022-10-19T13:57:45.577Z,18.70
2022-10-19T14:00:20.124Z,18.47
2022-10-19T14:03:07.936Z,17.82
2022-10-19T14:05:57.755Z,18.16
2022-10-19T14:08:27.382Z,17.86
2022-10-19T14:11:04.826Z,18.71
2022-10-19T14:13:32.383Z,18.85
2022-10-19T14:16:03.176Z,18.54
2022-10-19T14:18:32.851Z,18.73
2022-10-19T14:21:04.269Z,18.61
2022-10-19T14:23:34.257Z,18.01
2022-10-19T14:26:03.997Z,18.43
2022-10-19T14:28:32.014Z,17.97
2022-10-19T14:31:05.368Z,17.85
2022-10-19T14:33:35.291Z,17.54
2022-10-19T14:36:02.602Z,17.45
2022-10-19T14:38:38.513Z,17.75
2022-10-19T14:41:06.653Z,17.64
2022-10-19T14:43:34.919Z,17.88
2022-10-19T14:46:11.275Z,18.46
2022-10-19T14:48:45.600Z,17.86
2022-10-19T14:51:43.314Z,17.96
2022-10-19T14:54:36.115Z,17.90
2022-10-19T14:57:12.489Z,18.37
2022-10-19T14:59:46.461Z,17.88
2022-10-19T15:02:22.629Z,18.12
2022-10-19T15:04:51.438Z,17.28
2022-10-19T15:07:25.435Z,17.56
2022-10-19T15:09:58.254Z,17.51
2022-10-19T15:12:40.255Z,17.65
2022-10-19T15:15:15.427Z,17.51
2022-10-19T15:17:54.382Z,17.65
2022-10-19T15:20:30.341Z,17.59
2022-10-19T15:22:58.626Z,17.49
2022-10-19T15:25:32.848Z,17.56
2022-10-19T15:28:20.270Z,17.34
2022-10-19T15:30:59.094Z,17.60
2022-10-19T15:33:26.383Z,17.43
2022-10-19T15:35:53.072Z,17.28
2022-10-19T15:38:25.305Z,17.60
2022-10-19T15:41:00.855Z,17.63
2022-10-19T15:43:30.525Z,17.27
2022-10-19T15:46:12.406Z,17.20
2022-10-19T15:48:41.835Z,17.06
2022-10-19T15:51:23.508Z,17.30
2022-10-19T15:53:58.323Z,17.34
2022-10-19T15:56:27.909Z,17.05
2022-10-19T15:58:56.835Z,16.93
2022-10-19T16:01:26.519Z,17.01
2022-10-19T16:03:54.522Z,16.98
2022-10-19T16:06:23.551Z,16.52
2022-10-19T16:08:51.297Z,16.68
2022-10-19T16:11:20.037Z,16.68
2022-10-19T16:13:46.791Z,16.61
2022-10-19T16:16:21.123Z,16.65
2022-10-19T16:18:47.902Z,16.54
2022-10-19T16:21:15.533Z,16.50
2022-10-19T16:23:42.375Z,16.56
2022-10-19T16:26:09.118Z,16.44
2022-10-19T16:28:36.068Z,15.92
2022-10-19T16:31:02.892Z,15.13
2022-10-19T16:33:29.513Z,15.31
2022-10-19T16:35:56.067Z,15.33
2022-10-19T16:38:23.276Z,15.71
2022-10-19T16:40:49.894Z,15.66
2022-10-19T16:43:16.512Z,15.62
2022-10-19T16:45:43.742Z,15.46
2022-10-19T16:48:13.474Z,15.81
2022-10-19T16:50:40.146Z,15.67
2022-10-19T16:53:10.428Z,15.63
2022-10-19T16:55:38.214Z,15.52
2022-10-19T16:58:04.808Z,15.06
2022-10-19T17:00:31.722Z,15.06
2022-10-19T17:02:58.487Z,15.21
2022-10-19T17:05:25.107Z,14.91
2022-10-19T17:07:51.781Z,14.69
2022-10-19T17:10:18.492Z,14.78
2022-10-19T17:12:45.136Z,14.55
2022-10-19T17:17:59.834Z,14.51
2022-10-19T17:20:26.484Z,14.44
2022-10-19T17:22:53.114Z,14.46
2022-10-19T17:25:19.701Z,14.52
2022-10-19T17:27:50.534Z,14.49
2022-10-19T17:30:17.344Z,14.12
2022-10-19T17:32:43.973Z,14.15
2022-10-19T17:35:10.671Z,14.01
2022-10-19T17:37:38.055Z,13.99
2022-10-19T17:40:04.937Z,14.02
2022-10-19T17:42:32.267Z,13.68
2022-10-19T17:44:58.867Z,13.90
2022-10-19T17:47:25.442Z,13.93
2022-10-19T17:49:52.087Z,13.33
2022-10-19T17:52:18.684Z,13.79
2022-10-19T17:54:54.532Z,13.89
2022-10-19T17:57:32.449Z,13.89
2022-10-19T17:59:59.189Z,13.54
2022-10-19T18:02:25.896Z,13.70
2022-10-19T18:04:52.519Z,13.45
2022-10-19T18:07:21.961Z,13.43
2022-10-19T18:09:48.722Z,13.41
2022-10-19T18:12:15.343Z,13.38
2022-10-19T18:14:42.038Z,12.83
2022-10-19T18:17:08.594Z,13.09
2022-10-19T18:19:35.228Z,13.17
2022-10-19T18:22:01.811Z,13.11
2022-10-19T18:24:28.562Z,13.13
2022-10-19T18:26:55.315Z,13.06
2022-10-19T18:29:24.510Z,13.03
2022-10-19T18:31:52.515Z,12.95
2022-10-19T18:34:25.111Z,13.19
2022-10-19T18:36:52.395Z,12.78
2022-10-19T18:39:19.291Z,12.86
2022-10-19T18:41:45.964Z,12.58
2022-10-19T18:44:13.914Z,12.67
2022-10-19T18:46:41.010Z,12.52
2022-10-19T18:49:08.676Z,12.46
2022-10-19T18:51:35.600Z,11.99
2022-10-19T18:54:02.419Z,11.35
2022-10-19T18:56:33.493Z,11.59
2022-10-19T18:59:00.376Z,11.74
2022-10-19T19:01:28.305Z,11.19
2022-10-19T19:03:58.714Z,10.73
2022-10-19T19:06:30.082Z,11.30
2022-10-19T19:08:59.186Z,11.72
2022-10-19T19:11:34.297Z,11.75
2022-10-19T19:14:06.855Z,11.75
2022-10-19T19:16:36.193Z,11.86
2022-10-19T19:19:03.219Z,11.43
2022-10-19T19:21:31.415Z,11.60
2022-10-19T19:24:00.251Z,11.59
2022-10-19T19:26:29.623Z,11.31
2022-10-19T19:28:57.549Z,11.08
2022-10-19T19:31:24.605Z,11.30
2022-10-19T19:33:51.351Z,11.27
2022-10-19T19:36:19.499Z,11.28
2022-10-19T19:38:46.580Z,10.97
2022-10-19T19:41:15.069Z,10.45
2022-10-19T19:43:42.685Z,10.48
2022-10-19T19:46:13.675Z,11.29
2022-10-19T19:48:42.166Z,11.14
2022-10-19T19:51:11.557Z,11.14
2022-10-19T19:53:38.385Z,11.18
2022-10-19T19:56:09.029Z,11.43
2022-10-19T19:58:36.000Z,10.74
2022-10-19T20:01:12.289Z,10.97
2022-10-19T20:03:40.451Z,11.09
2022-10-19T20:06:07.631Z,10.91
2022-10-19T20:08:36.286Z,10.37
2022-10-19T20:11:08.599Z,10.48
2022-10-19T20:13:35.468Z,10.92
2022-10-19T20:16:09.179Z,10.79
2022-10-19T20:18:36.041Z,9.91
2022-10-19T20:21:03.578Z,9.58
2022-10-19T20:23:30.121Z,10.30
2022-10-19T20:25:56.993Z,9.86
2022-10-19T20:28:25.175Z,10.11
2022-10-19T20:31:02.592Z,10.51
2022-10-19T20:33:31.521Z,10.64
2022-10-19T20:36:06.862Z,10.77
2022-10-19T20:38:34.982Z,10.57
2022-10-19T20:41:09.788Z,10.76
2022-10-19T20:43:37.524Z,10.69
2022-10-19T20:46:04.959Z,10.47
2022-10-19T20:48:31.786Z,10.40
2022-10-19T20:51:32.604Z,10.79
2022-10-19T20:54:01.818Z,10.55
2022-10-19T20:56:30.800Z,10.44
2022-10-19T20:59:00.541Z,10.33
2022-10-19T21:01:29.246Z,10.27
2022-10-19T21:03:58.244Z,10.12
2022-10-19T21:06:26.699Z,9.89
2022-10-19T21:08:53.601Z,9.56
2022-10-19T21:11:23.359Z,9.55
2022-10-19T21:13:54.020Z,9.62
2022-10-19T21:16:22.137Z,9.63
2022-10-19T21:18:49.684Z,9.39
2022-10-19T21:21:22.535Z,10.02
2022-10-19T21:23:53.207Z,9.78
2022-10-19T21:26:20.099Z,9.93
2022-10-19T21:28:48.412Z,9.86
2022-10-19T21:31:16.788Z,9.95
2022-10-19T21:33:44.551Z,9.75
2022-10-19T21:36:12.611Z,9.86
2022-10-19T21:38:39.392Z,9.54
2022-10-19T21:41:08.691Z,9.59
2022-10-19T21:43:35.589Z,9.56
2022-10-19T21:46:06.881Z,9.85
2022-10-19T21:48:34.382Z,9.30
2022-10-19T21:51:12.708Z,9.36
2022-10-19T21:53:39.332Z,9.17
2022-10-19T21:56:06.185Z,9.72
2022-10-19T21:58:32.843Z,10.28
2022-10-19T22:01:06.526Z,10.55
2022-10-19T22:03:33.814Z,10.38
2022-10-19T22:06:00.772Z,9.73
2022-10-19T22:08:27.637Z,9.72
2022-10-19T22:10:54.317Z,9.81
2022-10-19T22:13:20.970Z,9.84
2022-10-19T22:15:47.523Z,9.72
2022-10-19T22:18:14.212Z,9.88
2022-10-19T22:20:41.036Z,9.79
2022-10-19T22:23:08.328Z,9.09
2022-10-19T22:25:35.765Z,9.41
2022-10-19T22:28:02.692Z,9.77
2022-10-19T22:30:29.403Z,9.65
2022-10-19T22:32:56.076Z,9.08
2022-10-19T22:35:22.677Z,9.30
2022-10-19T22:37:49.350Z,9.26
2022-10-19T22:40:15.958Z,9.14
2022-10-19T22:42:42.579Z,9.41
2022-10-19T22:45:09.323Z,8.96
2022-10-19T22:47:36.038Z,9.17
2022-10-19T22:50:02.696Z,9.11
2022-10-19T22:52:29.321Z,9.13
2022-10-19T22:54:55.983Z,9.35
2022-10-19T22:57:22.591Z,9.03
2022-10-19T22:59:49.134Z,9.49
2022-10-19T23:02:15.944Z,9.47
2022-10-19T23:04:42.502Z,9.16
2022-10-19T23:07:09.118Z,9.17
2022-10-19T23:09:35.722Z,9.37
2022-10-19T23:12:02.359Z,9.50
2022-10-19T23:14:28.991Z,9.52
2022-10-19T23:16:55.694Z,9.54
2022-10-19T23:19:22.258Z,9.58
2022-10-19T23:21:48.863Z,9.61
2022-10-19T23:24:15.461Z,9.60
2022-10-19T23:26:42.039Z,9.49
2022-10-19T23:29:08.655Z,9.23
2022-10-19T23:31:35.299Z,9.44
2022-10-19T23:34:01.860Z,9.52
2022-10-19T23:36:28.961Z,9.39
2022-10-19T23:38:56.729Z,9.54
2022-10-19T23:41:24.126Z,9.53
2022-10-19T23:43:50.729Z,9.17
2022-10-19T23:46:17.568Z,9.04
2022-10-19T23:48:44.292Z,9.57
2022-10-19T23:51:12.211Z,9.44
2022-10-19T23:53:41.464Z,9.43
2022-10-19T23:56:14.824Z,9.53
2022-10-19T23:58:41.845Z,9.39
